sensor_id;sensor_type;location;lat;lon;timestamp;temperature;humidity
7159;DHT22;63175;52.374;13.132;2023-04-08T00:01:53;6.80;99.90
7159;DHT22;63175;52.374;13.132;2023-04-08T00:04:20;6.80;99.90
7159;DHT22;63175;52.374;13.132;2023-04-08T00:06:48;6.80;99.90
7159;DHT22;63175;52.374;13.132;2023-04-08T00:09:16;6.80;99.90
7159;DHT22;63175;52.374;13.132;2023-04-08T00:11:43;6.80;99.90
7159;DHT22;63175;52.374;13.132;2023-04-08T00:14:09;6.80;99.90
7159;DHT22;63175;52.374;13.132;2023-04-08T00:16:36;6.90;99.90
7159;DHT22;63175;52.374;13.132;2023-04-08T00:19:03;6.90;99.90
7159;DHT22;63175;52.374;13.132;2023-04-08T00:21:31;6.90;99.90
7159;DHT22;63175;52.374;13.132;2023-04-08T00:23:59;6.90;99.90
7159;DHT22;63175;52.374;13.132;2023-04-08T00:26:26;6.90;99.90
7159;DHT22;63175;52.374;13.132;2023-04-08T00:28:52;6.90;99.90
7159;DHT22;63175;52.374;13.132;2023-04-08T00:31:19;6.90;99.90
7159;DHT22;63175;52.374;13.132;2023-04-08T00:33:46;6.80;99.90
7159;DHT22;63175;52.374;13.132;2023-04-08T00:36:13;6.80;99.90
7159;DHT22;63175;52.374;13.132;2023-04-08T00:38:40;6.80;99.90
7159;DHT22;63175;52.374;13.132;2023-04-08T00:41:08;6.90;99.90
7159;DHT22;63175;52.374;13.132;2023-04-08T00:43:35;6.80;99.90
7159;DHT22;63175;52.374;13.132;2023-04-08T00:46:02;6.80;99.90
7159;DHT22;63175;52.374;13.132;2023-04-08T00:48:30;6.80;99.90
7159;DHT22;63175;52.374;13.132;2023-04-08T00:50:57;6.90;99.90
7159;DHT22;63175;52.374;13.132;2023-04-08T00:53:24;6.80;99.90
7159;DHT22;63175;52.374;13.132;2023-04-08T00:55:51;6.80;99.90
7159;DHT22;63175;52.374;13.132;2023-04-08T00:58:19;6.80;99.90
7159;DHT22;63175;52.374;13.132;2023-04-08T01:00:51;6.80;99.90
7159;DHT22;63175;52.374;13.132;2023-04-08T01:03:26;6.80;99.90
7159;DHT22;63175;52.374;13.132;2023-04-08T01:06:03;6.80;99.90
7159;DHT22;63175;52.374;13.132;2023-04-08T01:08:34;6.80;99.90
7159;DHT22;63175;52.374;13.132;2023-04-08T01:11:03;6.80;99.90
7159;DHT22;63175;52.374;13.132;2023-04-08T01:13:37;6.80;99.90
7159;DHT22;63175;52.374;13.132;2023-04-08T01:16:05;6.80;99.90
7159;DHT22;63175;52.374;13.132;2023-04-08T01:18:35;6.80;99.90
7159;DHT22;63175;52.374;13.132;2023-04-08T01:21:04;6.80;99.90
7159;DHT22;63175;52.374;13.132;2023-04-08T01:23:38;6.80;99.90
7159;DHT22;63175;52.374;13.132;2023-04-08T01:26:09;6.80;99.90
7159;DHT22;63175;52.374;13.132;2023-04-08T01:28:37;6.80;99.90
7159;DHT22;63175;52.374;13.132;2023-04-08T01:31:05;6.80;99.90
7159;DHT22;63175;52.374;13.132;2023-04-08T01:33:33;6.80;99.90
7159;DHT22;63175;52.374;13.132;2023-04-08T01:36:01;6.80;99.90
7159;DHT22;63175;52.374;13.132;2023-04-08T01:38:31;6.80;99.90
7159;DHT22;63175;52.374;13.132;2023-04-08T01:40:59;6.80;99.90
7159;DHT22;63175;52.374;13.132;2023-04-08T01:43:27;6.80;99.90
7159;DHT22;63175;52.374;13.132;2023-04-08T01:45:57;6.80;99.90
7159;DHT22;63175;52.374;13.132;2023-04-08T01:48:24;6.80;99.90
7159;DHT22;63175;52.374;13.132;2023-04-08T01:50:53;6.80;99.90
7159;DHT22;63175;52.374;13.132;2023-04-08T01:53:21;6.80;99.90
7159;DHT22;63175;52.374;13.132;2023-04-08T01:55:52;6.80;99.90
7159;DHT22;63175;52.374;13.132;2023-04-08T01:58:21;6.80;99.90
7159;DHT22;63175;52.374;13.132;2023-04-08T02:00:50;6.80;99.90
7159;DHT22;63175;52.374;13.132;2023-04-08T02:03:21;6.80;99.90
7159;DHT22;63175;52.374;13.132;2023-04-08T02:05:49;6.80;99.90
7159;DHT22;63175;52.374;13.132;2023-04-08T02:08:16;6.80;99.90
7159;DHT22;63175;52.374;13.132;2023-04-08T02:10:43;6.80;99.90
7159;DHT22;63175;52.374;13.132;2023-04-08T02:13:10;6.80;99.90
7159;DHT22;63175;52.374;13.132;2023-04-08T02:15:39;6.90;99.90
7159;DHT22;63175;52.374;13.132;2023-04-08T02:18:12;6.80;99.90
7159;DHT22;63175;52.374;13.132;2023-04-08T02:20:43;6.80;99.90
7159;DHT22;63175;52.374;13.132;2023-04-08T02:23:14;6.80;99.90
7159;DHT22;63175;52.374;13.132;2023-04-08T02:25:44;6.80;99.90
7159;DHT22;63175;52.374;13.132;2023-04-08T02:28:11;6.80;99.90
7159;DHT22;63175;52.374;13.132;2023-04-08T02:30:42;6.80;99.90
7159;DHT22;63175;52.374;13.132;2023-04-08T02:33:10;6.80;99.90
7159;DHT22;63175;52.374;13.132;2023-04-08T02:35:39;6.80;99.90
7159;DHT22;63175;52.374;13.132;2023-04-08T02:38:08;6.80;99.90
7159;DHT22;63175;52.374;13.132;2023-04-08T02:40:35;6.80;99.90
7159;DHT22;63175;52.374;13.132;2023-04-08T02:43:02;6.80;99.90
7159;DHT22;63175;52.374;13.132;2023-04-08T02:45:31;6.80;99.90
7159;DHT22;63175;52.374;13.132;2023-04-08T02:47:59;6.80;99.90
7159;DHT22;63175;52.374;13.132;2023-04-08T02:50:27;6.80;99.90
7159;DHT22;63175;52.374;13.132;2023-04-08T02:52:54;6.80;99.90
7159;DHT22;63175;52.374;13.132;2023-04-08T02:55:21;6.80;99.90
7159;DHT22;63175;52.374;13.132;2023-04-08T02:57:48;6.80;99.90
7159;DHT22;63175;52.374;13.132;2023-04-08T03:00:16;6.80;99.90
7159;DHT22;63175;52.374;13.132;2023-04-08T03:02:43;6.80;99.90
7159;DHT22;63175;52.374;13.132;2023-04-08T03:05:10;6.80;99.90
7159;DHT22;63175;52.374;13.132;2023-04-08T03:07:38;6.80;99.90
7159;DHT22;63175;52.374;13.132;2023-04-08T03:10:06;6.80;99.90
7159;DHT22;63175;52.374;13.132;2023-04-08T03:12:33;6.80;99.90
7159;DHT22;63175;52.374;13.132;2023-04-08T03:15:00;6.80;99.90
7159;DHT22;63175;52.374;13.132;2023-04-08T03:17:28;6.80;99.90
7159;DHT22;63175;52.374;13.132;2023-04-08T03:19:57;6.80;99.90
7159;DHT22;63175;52.374;13.132;2023-04-08T03:22:23;6.80;99.90
7159;DHT22;63175;52.374;13.132;2023-04-08T03:24:52;6.80;99.90
7159;DHT22;63175;52.374;13.132;2023-04-08T03:27:18;6.80;99.90
7159;DHT22;63175;52.374;13.132;2023-04-08T03:29:45;6.80;99.90
7159;DHT22;63175;52.374;13.132;2023-04-08T03:32:12;6.80;99.90
7159;DHT22;63175;52.374;13.132;2023-04-08T03:34:39;6.80;99.90
7159;DHT22;63175;52.374;13.132;2023-04-08T03:37:06;6.80;99.90
7159;DHT22;63175;52.374;13.132;2023-04-08T03:39:33;6.80;99.90
7159;DHT22;63175;52.374;13.132;2023-04-08T03:42:01;6.80;99.90
7159;DHT22;63175;52.374;13.132;2023-04-08T03:44:28;6.80;99.90
7159;DHT22;63175;52.374;13.132;2023-04-08T03:46:55;6.80;99.90
7159;DHT22;63175;52.374;13.132;2023-04-08T03:49:22;6.80;99.90
7159;DHT22;63175;52.374;13.132;2023-04-08T03:51:49;6.80;99.90
7159;DHT22;63175;52.374;13.132;2023-04-08T03:54:16;6.80;99.90
7159;DHT22;63175;52.374;13.132;2023-04-08T03:56:43;6.80;99.90
7159;DHT22;63175;52.374;13.132;2023-04-08T03:59:11;6.80;99.90
7159;DHT22;63175;52.374;13.132;2023-04-08T04:01:38;6.80;99.90
7159;DHT22;63175;52.374;13.132;2023-04-08T04:04:04;6.80;99.90
7159;DHT22;63175;52.374;13.132;2023-04-08T04:06:31;6.80;99.90
7159;DHT22;63175;52.374;13.132;2023-04-08T04:08:58;6.80;99.90
7159;DHT22;63175;52.374;13.132;2023-04-08T04:11:25;6.80;99.90
7159;DHT22;63175;52.374;13.132;2023-04-08T04:13:52;6.80;99.90
7159;DHT22;63175;52.374;13.132;2023-04-08T04:16:20;6.80;99.90
7159;DHT22;63175;52.374;13.132;2023-04-08T04:18:47;6.80;99.90
7159;DHT22;63175;52.374;13.132;2023-04-08T04:21:14;6.80;99.90
7159;DHT22;63175;52.374;13.132;2023-04-08T04:23:40;6.80;99.90
7159;DHT22;63175;52.374;13.132;2023-04-08T04:26:08;6.80;99.90
7159;DHT22;63175;52.374;13.132;2023-04-08T04:28:35;6.80;99.90
7159;DHT22;63175;52.374;13.132;2023-04-08T04:31:02;6.80;99.90
7159;DHT22;63175;52.374;13.132;2023-04-08T04:33:30;6.80;99.90
7159;DHT22;63175;52.374;13.132;2023-04-08T04:35:57;6.80;99.90
7159;DHT22;63175;52.374;13.132;2023-04-08T04:38:24;6.80;99.90
7159;DHT22;63175;52.374;13.132;2023-04-08T04:40:51;6.80;99.90
7159;DHT22;63175;52.374;13.132;2023-04-08T04:43:18;6.80;99.90
7159;DHT22;63175;52.374;13.132;2023-04-08T04:45:45;6.80;99.90
7159;DHT22;63175;52.374;13.132;2023-04-08T04:48:12;6.80;99.90
7159;DHT22;63175;52.374;13.132;2023-04-08T04:50:40;6.80;99.90
7159;DHT22;63175;52.374;13.132;2023-04-08T04:53:07;6.90;99.90
7159;DHT22;63175;52.374;13.132;2023-04-08T04:55:33;6.90;99.90
7159;DHT22;63175;52.374;13.132;2023-04-08T04:58:00;6.90;99.90
7159;DHT22;63175;52.374;13.132;2023-04-08T05:00:27;6.90;99.90
7159;DHT22;63175;52.374;13.132;2023-04-08T05:02:54;6.90;99.90
7159;DHT22;63175;52.374;13.132;2023-04-08T05:05:21;6.90;99.90
7159;DHT22;63175;52.374;13.132;2023-04-08T05:07:49;6.90;99.90
7159;DHT22;63175;52.374;13.132;2023-04-08T05:10:16;6.90;99.90
7159;DHT22;63175;52.374;13.132;2023-04-08T05:12:43;6.90;99.90
7159;DHT22;63175;52.374;13.132;2023-04-08T05:15:10;6.90;99.90
7159;DHT22;63175;52.374;13.132;2023-04-08T05:17:37;6.90;99.90
7159;DHT22;63175;52.374;13.132;2023-04-08T05:20:05;6.90;99.90
7159;DHT22;63175;52.374;13.132;2023-04-08T05:22:32;6.90;99.90
7159;DHT22;63175;52.374;13.132;2023-04-08T05:25:00;6.90;99.90
7159;DHT22;63175;52.374;13.132;2023-04-08T05:27:27;7.00;99.90
7159;DHT22;63175;52.374;13.132;2023-04-08T05:29:54;7.00;99.90
7159;DHT22;63175;52.374;13.132;2023-04-08T05:32:21;7.00;99.90
7159;DHT22;63175;52.374;13.132;2023-04-08T05:34:47;7.00;99.90
7159;DHT22;63175;52.374;13.132;2023-04-08T05:37:14;7.00;99.90
7159;DHT22;63175;52.374;13.132;2023-04-08T05:39:41;7.00;99.90
7159;DHT22;63175;52.374;13.132;2023-04-08T05:42:09;7.00;99.90
7159;DHT22;63175;52.374;13.132;2023-04-08T05:44:38;7.00;99.90
7159;DHT22;63175;52.374;13.132;2023-04-08T05:47:06;7.00;99.90
7159;DHT22;63175;52.374;13.132;2023-04-08T05:49:32;7.10;99.90
7159;DHT22;63175;52.374;13.132;2023-04-08T05:52:00;7.10;99.90
7159;DHT22;63175;52.374;13.132;2023-04-08T05:54:28;7.10;99.90
7159;DHT22;63175;52.374;13.132;2023-04-08T05:56:55;7.10;99.90
7159;DHT22;63175;52.374;13.132;2023-04-08T05:59:23;7.20;99.90
7159;DHT22;63175;52.374;13.132;2023-04-08T06:01:50;7.20;99.90
7159;DHT22;63175;52.374;13.132;2023-04-08T06:04:17;7.20;99.90
7159;DHT22;63175;52.374;13.132;2023-04-08T06:06:43;7.30;99.90
7159;DHT22;63175;52.374;13.132;2023-04-08T06:09:10;7.30;99.90
7159;DHT22;63175;52.374;13.132;2023-04-08T06:11:37;7.40;99.90
7159;DHT22;63175;52.374;13.132;2023-04-08T06:14:04;7.40;99.90
7159;DHT22;63175;52.374;13.132;2023-04-08T06:16:32;7.50;99.90
7159;DHT22;63175;52.374;13.132;2023-04-08T06:18:59;7.50;99.90
7159;DHT22;63175;52.374;13.132;2023-04-08T06:21:26;7.50;99.90
7159;DHT22;63175;52.374;13.132;2023-04-08T06:23:52;7.60;99.90
7159;DHT22;63175;52.374;13.132;2023-04-08T06:26:19;7.60;99.90
7159;DHT22;63175;52.374;13.132;2023-04-08T06:28:46;7.70;99.90
7159;DHT22;63175;52.374;13.132;2023-04-08T06:31:13;7.70;99.90
7159;DHT22;63175;52.374;13.132;2023-04-08T06:33:41;7.70;99.90
7159;DHT22;63175;52.374;13.132;2023-04-08T06:36:08;7.70;99.90
7159;DHT22;63175;52.374;13.132;2023-04-08T06:38:35;7.80;99.90
7159;DHT22;63175;52.374;13.132;2023-04-08T06:41:02;7.80;99.90
7159;DHT22;63175;52.374;13.132;2023-04-08T06:43:29;7.80;99.90
7159;DHT22;63175;52.374;13.132;2023-04-08T06:45:56;7.80;99.90
7159;DHT22;63175;52.374;13.132;2023-04-08T06:48:23;7.90;99.90
7159;DHT22;63175;52.374;13.132;2023-04-08T06:50:54;8.00;99.90
7159;DHT22;63175;52.374;13.132;2023-04-08T06:53:22;8.10;99.90
7159;DHT22;63175;52.374;13.132;2023-04-08T06:55:49;8.10;99.90
7159;DHT22;63175;52.374;13.132;2023-04-08T06:58:16;8.10;99.90
7159;DHT22;63175;52.374;13.132;2023-04-08T07:00:43;8.20;99.90
7159;DHT22;63175;52.374;13.132;2023-04-08T07:03:10;8.20;99.90
7159;DHT22;63175;52.374;13.132;2023-04-08T07:05:37;8.20;99.90
7159;DHT22;63175;52.374;13.132;2023-04-08T07:08:05;8.30;99.90
7159;DHT22;63175;52.374;13.132;2023-04-08T07:10:33;8.20;99.90
7159;DHT22;63175;52.374;13.132;2023-04-08T07:13:00;8.30;99.90
7159;DHT22;63175;52.374;13.132;2023-04-08T07:15:27;8.40;99.90
7159;DHT22;63175;52.374;13.132;2023-04-08T07:17:55;8.40;99.90
7159;DHT22;63175;52.374;13.132;2023-04-08T07:20:22;8.50;99.90
7159;DHT22;63175;52.374;13.132;2023-04-08T07:22:49;8.50;99.90
7159;DHT22;63175;52.374;13.132;2023-04-08T07:25:17;8.50;99.90
7159;DHT22;63175;52.374;13.132;2023-04-08T07:27:44;8.60;99.90
7159;DHT22;63175;52.374;13.132;2023-04-08T07:30:11;8.70;99.90
7159;DHT22;63175;52.374;13.132;2023-04-08T07:32:38;8.80;99.90
7159;DHT22;63175;52.374;13.132;2023-04-08T07:35:05;9.00;99.90
7159;DHT22;63175;52.374;13.132;2023-04-08T07:37:32;9.20;99.90
7159;DHT22;63175;52.374;13.132;2023-04-08T07:39:59;9.40;99.90
7159;DHT22;63175;52.374;13.132;2023-04-08T07:42:27;9.50;99.90
7159;DHT22;63175;52.374;13.132;2023-04-08T07:44:54;9.70;99.90
7159;DHT22;63175;52.374;13.132;2023-04-08T07:47:21;9.70;99.90
7159;DHT22;63175;52.374;13.132;2023-04-08T07:49:48;9.70;99.90
7159;DHT22;63175;52.374;13.132;2023-04-08T07:52:15;9.70;99.90
7159;DHT22;63175;52.374;13.132;2023-04-08T07:54:42;9.60;99.90
7159;DHT22;63175;52.374;13.132;2023-04-08T07:57:09;9.60;99.90
7159;DHT22;63175;52.374;13.132;2023-04-08T07:59:37;9.50;99.90
7159;DHT22;63175;52.374;13.132;2023-04-08T08:02:04;9.50;99.90
7159;DHT22;63175;52.374;13.132;2023-04-08T08:04:31;9.40;99.90
7159;DHT22;63175;52.374;13.132;2023-04-08T08:06:58;9.30;99.90
7159;DHT22;63175;52.374;13.132;2023-04-08T08:09:25;9.30;99.90
7159;DHT22;63175;52.374;13.132;2023-04-08T08:11:52;9.30;99.90
7159;DHT22;63175;52.374;13.132;2023-04-08T08:14:19;9.40;99.90
7159;DHT22;63175;52.374;13.132;2023-04-08T08:16:47;9.50;99.90
7159;DHT22;63175;52.374;13.132;2023-04-08T08:19:15;9.50;99.90
7159;DHT22;63175;52.374;13.132;2023-04-08T08:21:42;9.50;99.90
7159;DHT22;63175;52.374;13.132;2023-04-08T08:24:08;9.50;99.90
7159;DHT22;63175;52.374;13.132;2023-04-08T08:26:35;9.60;99.90
7159;DHT22;63175;52.374;13.132;2023-04-08T08:29:03;9.70;99.90
7159;DHT22;63175;52.374;13.132;2023-04-08T08:31:31;9.80;99.90
7159;DHT22;63175;52.374;13.132;2023-04-08T08:33:59;9.90;99.90
7159;DHT22;63175;52.374;13.132;2023-04-08T08:36:26;10.00;99.90
7159;DHT22;63175;52.374;13.132;2023-04-08T08:38:53;10.20;99.90
7159;DHT22;63175;52.374;13.132;2023-04-08T08:41:20;10.30;99.90
7159;DHT22;63175;52.374;13.132;2023-04-08T08:43:47;10.30;99.90
7159;DHT22;63175;52.374;13.132;2023-04-08T08:46:16;10.40;99.90
7159;DHT22;63175;52.374;13.132;2023-04-08T08:48:43;10.50;99.90
7159;DHT22;63175;52.374;13.132;2023-04-08T08:51:12;10.50;99.90
7159;DHT22;63175;52.374;13.132;2023-04-08T08:53:39;10.50;99.90
7159;DHT22;63175;52.374;13.132;2023-04-08T08:56:09;10.50;99.90
7159;DHT22;63175;52.374;13.132;2023-04-08T08:58:36;10.50;99.90
7159;DHT22;63175;52.374;13.132;2023-04-08T09:01:34;10.60;99.90
7159;DHT22;63175;52.374;13.132;2023-04-08T09:04:12;10.70;99.90
7159;DHT22;63175;52.374;13.132;2023-04-08T09:06:43;10.90;99.90
7159;DHT22;63175;52.374;13.132;2023-04-08T09:09:11;11.10;99.90
7159;DHT22;63175;52.374;13.132;2023-04-08T09:11:39;11.50;99.90
7159;DHT22;63175;52.374;13.132;2023-04-08T09:14:16;11.70;99.90
7159;DHT22;63175;52.374;13.132;2023-04-08T09:16:43;11.90;99.90
7159;DHT22;63175;52.374;13.132;2023-04-08T09:19:11;11.90;99.90
7159;DHT22;63175;52.374;13.132;2023-04-08T09:21:38;11.80;99.90
7159;DHT22;63175;52.374;13.132;2023-04-08T09:24:08;11.70;99.90
7159;DHT22;63175;52.374;13.132;2023-04-08T09:26:35;11.80;99.90
7159;DHT22;63175;52.374;13.132;2023-04-08T09:29:04;11.90;99.90
7159;DHT22;63175;52.374;13.132;2023-04-08T09:31:33;11.90;99.90
7159;DHT22;63175;52.374;13.132;2023-04-08T09:34:09;11.90;99.90
7159;DHT22;63175;52.374;13.132;2023-04-08T09:36:36;11.80;99.90
7159;DHT22;63175;52.374;13.132;2023-04-08T09:39:03;11.60;99.90
7159;DHT22;63175;52.374;13.132;2023-04-08T09:41:34;11.50;99.90
7159;DHT22;63175;52.374;13.132;2023-04-08T09:44:03;11.40;99.90
7159;DHT22;63175;52.374;13.132;2023-04-08T09:46:39;11.30;99.90
7159;DHT22;63175;52.374;13.132;2023-04-08T09:49:12;11.30;99.90
7159;DHT22;63175;52.374;13.132;2023-04-08T09:51:44;11.30;99.90
7159;DHT22;63175;52.374;13.132;2023-04-08T09:54:15;11.40;99.90
7159;DHT22;63175;52.374;13.132;2023-04-08T09:56:50;11.50;99.90
7159;DHT22;63175;52.374;13.132;2023-04-08T09:59:23;11.60;99.90
7159;DHT22;63175;52.374;13.132;2023-04-08T10:01:53;11.50;99.90
7159;DHT22;63175;52.374;13.132;2023-04-08T10:04:23;11.50;99.90
7159;DHT22;63175;52.374;13.132;2023-04-08T10:06:53;11.40;99.90
7159;DHT22;63175;52.374;13.132;2023-04-08T10:09:23;11.30;99.90
7159;DHT22;63175;52.374;13.132;2023-04-08T10:11:51;11.20;99.90
7159;DHT22;63175;52.374;13.132;2023-04-08T10:14:18;11.10;99.90
7159;DHT22;63175;52.374;13.132;2023-04-08T10:16:46;11.00;99.90
7159;DHT22;63175;52.374;13.132;2023-04-08T10:19:35;11.00;99.90
7159;DHT22;63175;52.374;13.132;2023-04-08T10:22:45;11.00;99.90
7159;DHT22;63175;52.374;13.132;2023-04-08T10:25:28;11.10;99.90
7159;DHT22;63175;52.374;13.132;2023-04-08T10:27:57;11.30;99.90
7159;DHT22;63175;52.374;13.132;2023-04-08T10:30:41;11.70;99.90
7159;DHT22;63175;52.374;13.132;2023-04-08T10:33:12;12.00;99.90
7159;DHT22;63175;52.374;13.132;2023-04-08T10:35:42;12.10;99.90
7159;DHT22;63175;52.374;13.132;2023-04-08T10:38:11;12.20;99.90
7159;DHT22;63175;52.374;13.132;2023-04-08T10:40:39;12.20;99.90
7159;DHT22;63175;52.374;13.132;2023-04-08T10:43:09;12.10;99.90
7159;DHT22;63175;52.374;13.132;2023-04-08T10:45:36;12.10;99.90
7159;DHT22;63175;52.374;13.132;2023-04-08T10:48:14;12.10;99.90
7159;DHT22;63175;52.374;13.132;2023-04-08T10:50:42;12.10;99.90
7159;DHT22;63175;52.374;13.132;2023-04-08T10:53:10;12.10;99.90
7159;DHT22;63175;52.374;13.132;2023-04-08T10:55:37;12.10;99.90
7159;DHT22;63175;52.374;13.132;2023-04-08T10:58:09;12.00;99.90
7159;DHT22;63175;52.374;13.132;2023-04-08T11:00:38;12.00;99.90
7159;DHT22;63175;52.374;13.132;2023-04-08T11:03:08;12.10;99.90
7159;DHT22;63175;52.374;13.132;2023-04-08T11:05:35;12.10;99.90
7159;DHT22;63175;52.374;13.132;2023-04-08T11:08:04;12.10;99.90
7159;DHT22;63175;52.374;13.132;2023-04-08T11:10:35;12.10;99.90
7159;DHT22;63175;52.374;13.132;2023-04-08T11:13:05;12.30;99.90
7159;DHT22;63175;52.374;13.132;2023-04-08T11:15:35;12.30;99.90
7159;DHT22;63175;52.374;13.132;2023-04-08T11:18:02;12.40;99.90
7159;DHT22;63175;52.374;13.132;2023-04-08T11:20:31;12.50;99.90
7159;DHT22;63175;52.374;13.132;2023-04-08T11:22:59;12.50;99.90
7159;DHT22;63175;52.374;13.132;2023-04-08T11:25:26;12.50;99.90
7159;DHT22;63175;52.374;13.132;2023-04-08T11:27:53;12.50;99.90
7159;DHT22;63175;52.374;13.132;2023-04-08T11:30:20;12.40;99.90
7159;DHT22;63175;52.374;13.132;2023-04-08T11:32:50;12.60;99.90
7159;DHT22;63175;52.374;13.132;2023-04-08T11:35:17;12.90;99.90
7159;DHT22;63175;52.374;13.132;2023-04-08T11:37:44;13.00;99.90
7159;DHT22;63175;52.374;13.132;2023-04-08T11:40:18;13.10;99.90
7159;DHT22;63175;52.374;13.132;2023-04-08T11:42:45;13.10;99.90
7159;DHT22;63175;52.374;13.132;2023-04-08T11:45:13;13.10;99.90
7159;DHT22;63175;52.374;13.132;2023-04-08T11:47:40;13.10;99.90
7159;DHT22;63175;52.374;13.132;2023-04-08T11:50:09;13.10;99.90
7159;DHT22;63175;52.374;13.132;2023-04-08T11:52:40;13.20;99.90
7159;DHT22;63175;52.374;13.132;2023-04-08T11:55:08;13.30;99.90
7159;DHT22;63175;52.374;13.132;2023-04-08T11:57:36;13.30;99.90
7159;DHT22;63175;52.374;13.132;2023-04-08T12:00:04;13.20;99.90
7159;DHT22;63175;52.374;13.132;2023-04-08T12:02:31;13.10;99.90
7159;DHT22;63175;52.374;13.132;2023-04-08T12:04:58;13.00;99.90
7159;DHT22;63175;52.374;13.132;2023-04-08T12:07:27;12.90;99.90
7159;DHT22;63175;52.374;13.132;2023-04-08T12:09:54;12.90;99.90
7159;DHT22;63175;52.374;13.132;2023-04-08T12:12:21;13.00;99.90
7159;DHT22;63175;52.374;13.132;2023-04-08T12:14:47;13.00;99.90
7159;DHT22;63175;52.374;13.132;2023-04-08T12:17:14;13.30;99.90
7159;DHT22;63175;52.374;13.132;2023-04-08T12:19:41;13.80;99.90
7159;DHT22;63175;52.374;13.132;2023-04-08T12:22:09;14.20;99.90
7159;DHT22;63175;52.374;13.132;2023-04-08T12:24:37;14.40;99.90
7159;DHT22;63175;52.374;13.132;2023-04-08T12:27:04;14.50;99.90
7159;DHT22;63175;52.374;13.132;2023-04-08T12:29:31;14.50;99.90
7159;DHT22;63175;52.374;13.132;2023-04-08T12:31:58;14.40;99.90
7159;DHT22;63175;52.374;13.132;2023-04-08T12:34:25;14.50;99.90
7159;DHT22;63175;52.374;13.132;2023-04-08T12:36:51;14.60;99.90
7159;DHT22;63175;52.374;13.132;2023-04-08T12:39:20;14.80;99.70
7159;DHT22;63175;52.374;13.132;2023-04-08T12:41:48;15.30;99.20
7159;DHT22;63175;52.374;13.132;2023-04-08T12:44:15;15.70;97.90
7159;DHT22;63175;52.374;13.132;2023-04-08T12:46:41;16.10;96.40
7159;DHT22;63175;52.374;13.132;2023-04-08T12:49:09;16.10;95.30
7159;DHT22;63175;52.374;13.132;2023-04-08T12:51:37;16.00;94.80
7159;DHT22;63175;52.374;13.132;2023-04-08T12:54:05;15.80;94.50
7159;DHT22;63175;52.374;13.132;2023-04-08T12:56:33;15.70;94.30
7159;DHT22;63175;52.374;13.132;2023-04-08T12:59:01;15.90;94.50
7159;DHT22;63175;52.374;13.132;2023-04-08T13:01:28;16.20;93.50
7159;DHT22;63175;52.374;13.132;2023-04-08T13:03:55;16.50;92.50
7159;DHT22;63175;52.374;13.132;2023-04-08T13:06:22;16.70;91.10
7159;DHT22;63175;52.374;13.132;2023-04-08T13:08:48;16.90;90.30
7159;DHT22;63175;52.374;13.132;2023-04-08T13:11:15;17.00;87.90
7159;DHT22;63175;52.374;13.132;2023-04-08T13:13:42;17.10;86.40
7159;DHT22;63175;52.374;13.132;2023-04-08T13:16:12;17.30;85.20
7159;DHT22;63175;52.374;13.132;2023-04-08T13:18:39;17.70;83.50
7159;DHT22;63175;52.374;13.132;2023-04-08T13:21:06;18.10;81.30
7159;DHT22;63175;52.374;13.132;2023-04-08T13:23:33;18.50;79.30
7159;DHT22;63175;52.374;13.132;2023-04-08T13:26:01;18.80;81.20
7159;DHT22;63175;52.374;13.132;2023-04-08T13:28:28;19.10;72.10
7159;DHT22;63175;52.374;13.132;2023-04-08T13:30:55;19.40;78.60
7159;DHT22;63175;52.374;13.132;2023-04-08T13:33:23;19.70;67.10
7159;DHT22;63175;52.374;13.132;2023-04-08T13:35:50;19.40;64.10
7159;DHT22;63175;52.374;13.132;2023-04-08T13:38:17;20.60;62.70
7159;DHT22;63175;52.374;13.132;2023-04-08T13:40:44;21.10;65.30
7159;DHT22;63175;52.374;13.132;2023-04-08T13:43:11;21.20;63.80
7159;DHT22;63175;52.374;13.132;2023-04-08T13:45:39;21.10;61.70
7159;DHT22;63175;52.374;13.132;2023-04-08T13:48:06;20.90;60.60
7159;DHT22;63175;52.374;13.132;2023-04-08T13:50:34;20.80;59.80
7159;DHT22;63175;52.374;13.132;2023-04-08T13:53:01;21.00;59.50
7159;DHT22;63175;52.374;13.132;2023-04-08T13:55:28;21.20;57.50
7159;DHT22;63175;52.374;13.132;2023-04-08T13:57:54;21.00;57.20
7159;DHT22;63175;52.374;13.132;2023-04-08T14:00:21;21.30;56.30
7159;DHT22;63175;52.374;13.132;2023-04-08T14:02:49;21.00;56.30
7159;DHT22;63175;52.374;13.132;2023-04-08T14:05:17;20.50;57.10
7159;DHT22;63175;52.374;13.132;2023-04-08T14:07:45;20.10;58.00
7159;DHT22;63175;52.374;13.132;2023-04-08T14:10:12;19.50;59.10
7159;DHT22;63175;52.374;13.132;2023-04-08T14:12:40;18.90;60.10
7159;DHT22;63175;52.374;13.132;2023-04-08T14:15:08;18.60;62.00
7159;DHT22;63175;52.374;13.132;2023-04-08T14:17:35;18.50;63.30
7159;DHT22;63175;52.374;13.132;2023-04-08T14:20:01;18.20;63.70
7159;DHT22;63175;52.374;13.132;2023-04-08T14:22:30;18.00;63.70
7159;DHT22;63175;52.374;13.132;2023-04-08T14:24:58;17.70;64.30
7159;DHT22;63175;52.374;13.132;2023-04-08T14:27:25;17.40;64.60
7159;DHT22;63175;52.374;13.132;2023-04-08T14:29:52;17.20;65.30
7159;DHT22;63175;52.374;13.132;2023-04-08T14:32:19;16.90;65.80
7159;DHT22;63175;52.374;13.132;2023-04-08T14:34:46;16.70;66.60
7159;DHT22;63175;52.374;13.132;2023-04-08T14:37:13;16.70;67.50
7159;DHT22;63175;52.374;13.132;2023-04-08T14:39:42;16.80;67.90
7159;DHT22;63175;52.374;13.132;2023-04-08T14:42:10;17.20;67.00
7159;DHT22;63175;52.374;13.132;2023-04-08T14:44:37;17.60;65.90
7159;DHT22;63175;52.374;13.132;2023-04-08T14:47:04;17.90;65.10
7159;DHT22;63175;52.374;13.132;2023-04-08T14:49:31;18.20;63.80
7159;DHT22;63175;52.374;13.132;2023-04-08T14:51:58;18.40;63.30
7159;DHT22;63175;52.374;13.132;2023-04-08T14:54:25;18.30;60.90
7159;DHT22;63175;52.374;13.132;2023-04-08T14:56:51;18.20;61.50
7159;DHT22;63175;52.374;13.132;2023-04-08T14:59:20;17.90;62.60
7159;DHT22;63175;52.374;13.132;2023-04-08T15:01:47;17.80;63.70
7159;DHT22;63175;52.374;13.132;2023-04-08T15:04:14;17.70;63.80
7159;DHT22;63175;52.374;13.132;2023-04-08T15:06:41;17.50;63.70
7159;DHT22;63175;52.374;13.132;2023-04-08T15:09:08;17.20;63.80
7159;DHT22;63175;52.374;13.132;2023-04-08T15:11:35;17.00;64.90
7159;DHT22;63175;52.374;13.132;2023-04-08T15:14:02;16.80;65.20
7159;DHT22;63175;52.374;13.132;2023-04-08T15:16:30;16.70;64.80
7159;DHT22;63175;52.374;13.132;2023-04-08T15:18:57;16.60;60.40
7159;DHT22;63175;52.374;13.132;2023-04-08T15:21:25;16.40;60.40
7159;DHT22;63175;52.374;13.132;2023-04-08T15:23:52;16.40;61.20
7159;DHT22;63175;52.374;13.132;2023-04-08T15:26:19;16.40;61.30
7159;DHT22;63175;52.374;13.132;2023-04-08T15:28:46;16.40;61.80
7159;DHT22;63175;52.374;13.132;2023-04-08T15:31:12;16.40;62.20
7159;DHT22;63175;52.374;13.132;2023-04-08T15:33:41;16.30;62.20
7159;DHT22;63175;52.374;13.132;2023-04-08T15:36:09;16.30;62.20
7159;DHT22;63175;52.374;13.132;2023-04-08T15:38:36;16.20;63.00
7159;DHT22;63175;52.374;13.132;2023-04-08T15:41:04;16.10;62.40
7159;DHT22;63175;52.374;13.132;2023-04-08T15:43:31;16.10;62.00
7159;DHT22;63175;52.374;13.132;2023-04-08T15:45:58;15.90;62.60